Time;durP1;ratioP1;P1;durP2;ratioP2;P2;SDS_P1;SDS_P2;PMS_P1;PMS_P2;Temp;Humidity;BMP_temperature;BMP_pressure;BME280_temperature;BME280_humidity;BME280_pressure;Samples;Min_cycle;Max_cycle;Signal;HPM_P1;HPM_P2
2021/04/18 00:01:20;;;;;;;27.90;20.10;;;;;;;5.97;89.82;93445.53;4833029;23;20296;-90
2021/04/18 00:43:55;;;;;;;48.15;31.65;;;;;;;5.79;89.21;93386.59;4723801;29;20070;-90
2021/04/18 00:46:49;;;;;;;40.97;29.95;;;;;;;5.68;89.17;93380.59;4825451;29;20037;-89
2021/04/18 00:53:07;;;;;;;;;;;;;;;;;;;;;
2021/04/18 01:05:57;;;;;;;45.17;32.03;;;;;;;6.24;88.66;93427.59;4891788;23;20559;-88
2021/04/18 01:12:48;;;;;;;44.08;29.52;;;;;;;6.27;88.37;93395.56;4736606;30;20055;-89
2021/04/18 01:16:16;;;;;;;44.90;30.38;;;;;;;5.84;88.29;93333.34;4781405;23;20064;-90
2021/04/18 01:28:03;;;;;;;50.15;29.35;;;;;;;6.09;88.45;93407.47;4936021;23;20045;-88
2021/04/18 01:31:26;;;;;;;48.65;30.75;;;;;;;6.18;88.20;93407.69;4777242;28;20092;-91
2021/04/18 01:39:45;;;;;;;46.85;30.95;;;;;;;6.11;88.23;93399.31;4863386;29;20572;-85
2021/04/18 01:42:24;;;;;;;49.83;29.38;;;;;;;5.96;88.04;93362.69;4783164;29;20192;-88
2021/04/18 01:45:30;;;;;;;46.88;29.17;;;;;;;5.72;88.39;93336.28;4797583;29;20037;-88
2021/04/18 01:48:47;;;;;;;46.13;28.58;;;;;;;6.09;88.09;93389.09;4757944;29;20053;-88
2021/04/18 01:51:48;;;;;;;49.17;27.17;;;;;;;5.61;88.05;93330.31;4758472;29;20109;-86
2021/04/18 01:55:08;;;;;;;49.00;30.23;;;;;;;5.75;88.10;93332.34;4719699;29;20052;-90
2021/04/18 01:58:23;;;;;;;47.78;26.98;;;;;;;5.97;87.75;93359.00;4681588;29;20056;-89
2021/04/18 02:00:57;;;;;;;44.08;27.95;;;;;;;5.80;87.70;93345.44;4775410;23;20127;-87
2021/04/18 02:06:38;;;;;;;42.63;27.55;;;;;;;6.20;87.56;93413.47;4818974;24;20053;-91
2021/04/18 02:09:01;;;;;;;47.10;29.05;;;;;;;5.90;87.39;93358.53;4773125;29;20065;-90
2021/04/18 02:11:26;;;;;;;46.95;28.25;;;;;;;5.96;87.53;93368.69;4816445;29;20014;-89
2021/04/18 02:13:52;;;;;;;48.70;29.38;;;;;;;6.13;87.25;93367.56;4740110;29;20055;-90
2021/04/18 02:16:29;;;;;;;43.72;26.35;;;;;;;5.92;87.38;93364.25;4839411;29;20096;-89
2021/04/18 02:18:58;;;;;;;44.42;28.67;;;;;;;6.01;87.11;93354.81;4822601;29;20053;-91
2021/04/18 02:21:33;;;;;;;48.33;27.90;;;;;;;6.27;87.07;93395.56;4775890;29;20046;-91
2021/04/18 02:24:25;;;;;;;41.55;26.42;;;;;;;6.14;86.89;93382.25;4813177;29;20460;-89
2021/04/18 02:27:48;;;;;;;44.83;26.88;;;;;;;6.25;86.57;93389.81;4768990;29;20056;-88
2021/04/18 02:30:16;;;;;;;37.60;24.75;;;;;;;6.33;85.76;93362.22;4699060;29;20618;-92
2021/04/18 02:32:59;;;;;;;39.85;25.80;;;;;;;6.60;85.71;93388.03;4756057;29;20528;-90
2021/04/18 02:35:33;;;;;;;41.63;26.92;;;;;;;6.36;85.90;93346.69;4814057;29;20232;-91
2021/04/18 02:38:06;;;;;;;39.80;25.30;;;;;;;6.75;85.33;93391.31;4785312;29;20041;-90
2021/04/18 02:40:43;;;;;;;45.08;26.13;;;;;;;6.35;85.11;93326.75;4786796;29;20053;-91
2021/04/18 02:43:09;;;;;;;37.35;24.30;;;;;;;6.89;83.74;93389.63;4815437;29;20038;-91
2021/04/18 02:45:34;;;;;;;34.40;22.40;;;;;;;6.43;83.14;93315.69;4801499;29;20049;-92
2021/04/18 02:48:03;;;;;;;34.03;23.05;;;;;;;6.74;83.20;93358.25;4831859;29;20044;-92
2021/04/18 02:50:32;;;;;;;35.75;24.23;;;;;;;6.52;83.37;93318.50;4843619;29;20634;-92
2021/04/18 02:53:00;;;;;;;33.90;22.33;;;;;;;7.01;83.08;93391.09;4841411;29;20042;-91
2021/04/18 02:55:28;;;;;;;37.00;22.42;;;;;;;6.88;82.70;93374.16;4759032;29;20042;-92
2021/04/18 02:58:04;;;;;;;35.35;23.52;;;;;;;6.55;82.86;93333.69;4767600;29;20058;-92
2021/04/18 03:00:47;;;;;;;34.40;23.40;;;;;;;6.78;82.55;93382.88;4773986;29;20086;-92
2021/04/18 03:03:12;;;;;;;35.65;23.70;;;;;;;6.96;82.31;93384.06;4798273;29;20050;-92
2021/04/18 03:05:43;;;;;;;35.33;25.08;;;;;;;6.83;81.96;93355.81;4828864;29;20094;-93
2021/04/18 03:08:09;;;;;;;39.92;24.35;;;;;;;6.79;82.65;93387.06;4841095;29;20490;-92
2021/04/18 03:10:41;;;;;;;44.60;26.02;;;;;;;6.92;81.98;93383.81;4815810;29;20069;-92
2021/04/18 03:13:06;;;;;;;37.95;23.92;;;;;;;6.62;82.24;93378.03;4842035;29;20065;-91
2021/04/18 03:15:52;;;;;;;38.38;24.42;;;;;;;6.45;82.34;93360.03;4814264;29;20124;-92
2021/04/18 03:18:20;;;;;;;35.70;24.83;;;;;;;6.79;82.58;93417.81;4838317;29;20034;-92
2021/04/18 03:20:56;;;;;;;38.42;23.95;;;;;;;6.38;82.29;93367.41;4827240;29;20029;-92
2021/04/18 03:23:37;;;;;;;38.05;24.45;;;;;;;6.74;82.16;93408.13;4834904;29;20033;-92
2021/04/18 03:26:04;;;;;;;41.00;27.27;;;;;;;6.88;82.35;93435.34;4787080;29;20106;-93
2021/04/18 03:28:33;;;;;;;37.60;23.23;;;;;;;6.65;82.59;93377.47;4822228;29;20061;-93
2021/04/18 03:31:20;;;;;;;40.70;25.08;;;;;;;7.08;82.55;93442.28;4821520;29;20064;-90
2021/04/18 03:37:35;;;;;;;40.40;25.08;;;;;;;6.68;81.67;93377.72;4872969;24;20147;-94
2021/04/18 03:40:01;;;;;;;36.97;23.08;;;;;;;6.69;81.35;93375.88;4859188;29;20134;-91
2021/04/18 03:42:26;;;;;;;39.63;25.65;;;;;;;6.75;81.30;93401.81;4866875;29;20135;-90
2021/04/18 03:44:52;;;;;;;42.75;27.98;;;;;;;6.94;81.91;93415.84;4860669;29;20048;-90
2021/04/18 03:47:29;;;;;;;42.70;28.67;;;;;;;6.89;82.12;93412.50;4866354;29;20033;-91
2021/04/18 03:50:11;;;;;;;38.38;26.95;;;;;;;6.84;82.54;93412.53;4773150;29;20557;-90
2021/04/18 03:52:49;;;;;;;45.70;29.25;;;;;;;6.30;82.69;93363.53;4811659;29;21440;-94
2021/04/18 03:55:21;;;;;;;50.40;29.27;;;;;;;6.54;83.01;93418.78;4861240;29;20044;-91
2021/04/18 03:57:47;;;;;;;48.30;28.52;;;;;;;6.38;83.35;93396.28;4824995;29;20668;-90
2021/04/18 04:00:33;;;;;;;;;;;;;;;;;;;;;
2021/04/18 04:03:02;;;;;;;53.70;30.70;;;;;;;6.41;83.88;93421.97;4855785;29;20036;-90
2021/04/18 04:05:49;;;;;;;48.95;28.77;;;;;;;6.42;84.37;93419.09;4882300;29;20096;-91
2021/04/18 04:08:41;;;;;;;51.63;30.08;;;;;;;6.38;84.54;93428.56;4867078;29;20211;-90
2021/04/18 04:11:42;;;;;;;58.70;33.42;;;;;;;6.28;85.29;93439.13;4734910;29;20146;-90
2021/04/18 04:18:30;;;;;;;;;;;;;;;;;;;;;
2021/04/18 04:21:52;;;;;;;;;;;;;;;;;;;;;
2021/04/18 04:44:18;;;;;;;57.42;31.83;;;;;;;5.88;87.63;93421.72;4773570;29;20201;-92
2021/04/18 04:48:22;;;;;;;;;;;;;;;;;;;;;
2021/04/18 04:51:14;;;;;;;60.47;32.78;;;;;;;5.77;87.47;93390.50;4672978;30;20045;-93
2021/04/18 04:53:45;;;;;;;53.22;32.83;;;;;;;6.22;87.40;93465.66;4588379;31;20051;-92
2021/04/18 05:04:25;;;;;;;58.63;32.58;;;;;;;6.22;87.14;93469.06;4750490;29;20078;-91
2021/04/18 05:10:04;;;;;;;54.95;32.33;;;;;;;6.40;86.23;93451.94;4808586;29;20049;-91
2021/04/18 05:12:29;;;;;;;54.17;32.63;;;;;;;6.33;85.59;93436.47;4809777;29;20050;-91
2021/04/18 05:15:01;;;;;;;51.65;30.27;;;;;;;6.21;85.88;93422.88;4742690;29;20157;-92
2021/04/18 05:18:46;;;;;;;;;;;;;;;;;;;;;
2021/04/18 05:21:36;;;;;;;52.25;31.20;;;;;;;6.36;86.59;93454.28;4655434;30;20500;-92
2021/04/18 05:24:33;;;;;;;50.40;30.10;;;;;;;6.06;86.93;93412.44;4631885;30;20123;-93
2021/04/18 05:27:44;;;;;;;;;;;;;;;;;;;;;
2021/04/18 05:30:34;;;;;;;53.55;32.72;;;;;;;6.41;86.72;93427.22;4612508;30;20051;-93
2021/04/18 05:33:16;;;;;;;45.25;28.00;;;;;;;6.71;86.38;93450.69;4682057;30;20116;-91
2021/04/18 05:36:09;;;;;;;36.58;25.38;;;;;;;6.61;85.82;93413.19;4661763;30;20515;-93
2021/04/18 05:38:40;;;;;;;38.88;27.90;;;;;;;6.70;85.56;93414.19;4647220;30;20136;-93
2021/04/18 05:51:43;;;;;;;;;;;;;;;;;;;;;
2021/04/18 06:00:43;;;;;;;36.17;24.08;;;;;;;6.99;84.33;93449.16;4667249;29;20404;-92
2021/04/18 06:03:12;;;;;;;31.73;22.08;;;;;;;6.88;83.28;93398.56;4742253;29;20260;-92
2021/04/18 06:06:18;;;;;;;42.10;24.05;;;;;;;6.59;83.62;93410.06;4744517;29;21440;-93
2021/04/18 06:09:09;;;;;;;40.60;25.33;;;;;;;6.86;84.31;93455.84;4750408;29;20037;-92
2021/04/18 06:11:35;;;;;;;37.65;24.83;;;;;;;7.17;83.70;93466.91;4786171;29;21096;-92
2021/04/18 06:14:22;;;;;;;52.90;31.27;;;;;;;6.83;83.77;93429.34;4834351;29;20021;-92
2021/04/18 06:16:49;;;;;;;41.53;28.80;;;;;;;6.70;84.15;93403.69;4797015;29;20491;-92
2021/04/18 06:19:40;;;;;;;33.03;22.40;;;;;;;6.98;83.85;93473.88;4817795;29;20049;-93
2021/04/18 06:22:05;;;;;;;41.45;28.42;;;;;;;6.77;84.24;93444.34;4778182;29;20119;-91
2021/04/18 06:24:33;;;;;;;69.30;48.83;;;;;;;6.76;84.25;93402.59;4776804;29;21297;-92
2021/04/18 06:27:09;;;;;;;;;;;;;;;;;;;;;
2021/04/18 06:29:46;;;;;;;40.70;25.55;;;;;;;6.97;83.88;93414.53;4833462;29;20555;-92
2021/04/18 06:32:14;;;;;;;42.35;26.58;;;;;;;7.32;83.07;93444.97;4837041;29;20169;-93
2021/04/18 06:34:43;;;;;;;38.20;25.77;;;;;;;7.63;82.92;93480.44;4742095;29;20644;-92
2021/04/18 06:37:08;;;;;;;40.05;28.17;;;;;;;7.58;82.77;93475.22;4788974;29;20097;-92
2021/04/18 06:39:34;;;;;;;76.80;32.30;;;;;;;7.47;82.60;93449.31;4804157;29;20141;-93
2021/04/18 06:42:04;;;;;;;41.33;25.25;;;;;;;7.40;82.56;93439.91;4780468;29;20105;-93
2021/04/18 06:44:41;;;;;;;56.00;32.15;;;;;;;7.26;81.63;93428.47;4798110;29;20472;-93
2021/04/18 06:47:14;;;;;;;42.17;26.65;;;;;;;7.50;81.64;93461.91;4837509;29;20045;-92
2021/04/18 06:49:40;;;;;;;37.22;24.85;;;;;;;7.31;81.39;93452.06;4758528;29;20050;-92
2021/04/18 06:52:07;;;;;;;38.90;25.75;;;;;;;7.04;81.85;93425.47;4837006;29;20057;-92
2021/04/18 06:54:34;;;;;;;41.50;25.60;;;;;;;7.23;82.50;93449.25;4814114;29;20540;-92
2021/04/18 06:56:59;;;;;;;40.60;27.25;;;;;;;7.05;82.26;93429.69;4803697;29;20406;-92
2021/04/18 06:59:27;;;;;;;37.95;25.15;;;;;;;7.14;82.60;93432.50;4808658;29;20423;-93
2021/04/18 07:01:53;;;;;;;39.88;24.98;;;;;;;7.36;82.37;93459.91;4799425;29;20183;-92
2021/04/18 07:04:22;;;;;;;38.83;24.60;;;;;;;7.11;82.35;93436.47;4839679;29;20140;-92
2021/04/18 07:06:53;;;;;;;38.50;23.17;;;;;;;7.11;82.30;93456.69;4817774;29;20617;-92
2021/04/18 07:09:26;;;;;;;36.08;23.20;;;;;;;7.40;83.03;93494.31;4831273;29;20042;-91
2021/04/18 07:11:58;;;;;;;36.92;22.95;;;;;;;7.31;82.77;93456.53;4774125;29;20251;-92
2021/04/18 07:14:51;;;;;;;35.00;23.75;;;;;;;7.10;82.28;93440.16;4833838;29;20031;-92
2021/04/18 07:17:17;;;;;;;33.88;22.50;;;;;;;7.41;82.30;93461.72;4805415;29;20133;-93
2021/04/18 07:19:54;;;;;;;32.83;22.05;;;;;;;7.35;82.35;93437.31;4769024;29;20133;-92
2021/04/18 07:22:29;;;;;;;34.97;23.65;;;;;;;7.78;82.58;93463.72;4798270;29;20063;-93
2021/04/18 07:24:59;;;;;;;40.17;22.98;;;;;;;7.92;81.48;93440.16;4793836;29;20543;-92
2021/04/18 07:27:57;;;;;;;36.28;22.33;;;;;;;7.84;81.46;93438.94;4828941;29;20538;-93
2021/04/18 07:31:02;;;;;;;35.33;23.15;;;;;;;8.27;81.26;93485.28;4718651;29;20049;-93
2021/04/18 07:33:31;;;;;;;38.47;22.25;;;;;;;8.14;80.37;93454.38;4773940;29;20166;-91
2021/04/18 07:35:56;;;;;;;34.35;22.45;;;;;;;8.20;80.13;93458.53;4780633;29;20542;-92
2021/04/18 07:38:23;;;;;;;32.88;22.88;;;;;;;8.01;79.54;93436.66;4793828;29;20106;-91
2021/04/18 07:47:02;;;;;;;38.42;23.40;;;;;;;7.92;79.12;93456.72;4689983;29;20166;-92
2021/04/18 07:50:17;;;;;;;44.03;25.10;;;;;;;7.80;79.61;93464.22;4724681;29;20604;-92
2021/04/18 07:53:01;;;;;;;43.70;26.52;;;;;;;7.62;79.64;93457.84;4720912;29;20048;-91
2021/04/18 07:55:26;;;;;;;45.28;27.35;;;;;;;7.96;80.61;93515.63;4809912;29;20456;-91
2021/04/18 07:57:55;;;;;;;44.88;26.27;;;;;;;7.63;80.55;93455.97;4755618;29;20050;-92
2021/04/18 08:00:24;;;;;;;50.72;27.92;;;;;;;7.81;80.37;93465.81;4828169;29;20586;-91
2021/04/18 08:02:56;;;;;;;54.17;34.58;;;;;;;7.79;80.17;93452.91;4828665;29;20218;-90
2021/04/18 08:05:33;;;;;;;43.10;27.60;;;;;;;7.71;79.31;93460.66;4842824;29;20032;-91
2021/04/18 08:08:16;;;;;;;47.13;27.80;;;;;;;7.93;79.61;93512.75;4770766;29;20139;-91
2021/04/18 08:13:22;;;;;;;46.72;26.02;;;;;;;7.78;80.13;93505.81;5048989;27;20690;-91
2021/04/18 08:16:09;;;;;;;50.75;30.23;;;;;;;7.78;80.87;93513.69;5012199;28;20060;-90
2021/04/18 08:18:49;;;;;;;43.85;28.48;;;;;;;7.53;80.65;93467.38;5040225;28;20084;-91
2021/04/18 08:21:43;;;;;;;43.97;26.83;;;;;;;7.72;80.45;93528.72;5032887;28;20529;-91
2021/04/18 08:24:17;;;;;;;52.42;28.92;;;;;;;7.70;81.17;93517.72;5014554;28;20041;-90
2021/04/18 08:26:58;;;;;;;45.75;26.35;;;;;;;7.60;80.55;93475.72;5001825;28;20037;-92
2021/04/18 08:29:24;;;;;;;51.63;28.58;;;;;;;7.93;80.40;93489.88;5040861;28;20025;-92
2021/04/18 08:31:49;;;;;;;45.25;27.77;;;;;;;8.24;79.85;93522.69;5049185;28;20409;-91
2021/04/18 08:34:25;;;;;;;46.42;28.50;;;;;;;8.18;78.68;93508.03;5061877;28;20501;-92
2021/04/18 08:36:53;;;;;;;46.10;28.05;;;;;;;8.36;78.68;93532.06;5043991;28;20075;-91
2021/04/18 08:39:39;;;;;;;49.10;28.83;;;;;;;8.48;78.08;93521.94;5029738;28;20401;-92
2021/04/18 08:42:06;;;;;;;42.88;27.38;;;;;;;8.46;77.87;93497.72;5055396;28;20036;-93
2021/04/18 08:44:35;;;;;;;45.63;28.00;;;;;;;8.63;77.31;93529.66;5037598;28;20024;-92
2021/04/18 08:47:02;;;;;;;45.50;28.15;;;;;;;8.73;77.86;93529.53;5053792;28;20037;-92
2021/04/18 08:49:58;;;;;;;44.33;27.27;;;;;;;8.76;77.83;93510.50;5050424;28;20064;-92
2021/04/18 08:52:33;;;;;;;44.40;27.73;;;;;;;8.59;76.88;93462.81;5046985;28;20040;-84
2021/04/18 08:55:12;;;;;;;41.42;26.45;;;;;;;8.86;76.78;93496.41;5045942;28;20477;-83
2021/04/18 08:57:38;;;;;;;42.58;25.45;;;;;;;8.97;75.54;93489.94;5028476;28;20059;-83
2021/04/18 09:00:29;;;;;;;45.22;27.42;;;;;;;9.26;76.04;93537.22;5051556;28;20060;-83
2021/04/18 09:02:55;;;;;;;40.88;26.35;;;;;;;9.00;75.93;93495.41;5010988;28;20053;-84
2021/04/18 09:05:24;;;;;;;41.60;25.70;;;;;;;9.21;76.94;93513.56;5036393;28;20603;-84
2021/04/18 09:07:50;;;;;;;45.28;26.85;;;;;;;9.51;77.39;93548.19;5044104;28;20136;-83
2021/04/18 09:10:15;;;;;;;43.05;27.20;;;;;;;9.07;74.51;93487.16;5034736;28;20044;-83
2021/04/18 09:12:47;;;;;;;40.42;26.27;;;;;;;9.56;73.79;93539.41;5043328;28;20063;-83
2021/04/18 09:15:13;;;;;;;46.40;28.92;;;;;;;9.48;74.19;93503.91;5046176;28;20040;-83
2021/04/18 09:17:56;;;;;;;44.13;29.15;;;;;;;9.49;74.92;93496.78;4991384;28;21269;-85
2021/04/18 09:20:22;;;;;;;42.13;26.58;;;;;;;9.55;74.30;93509.63;5006723;28;20512;-83
2021/04/18 09:22:48;;;;;;;39.08;25.83;;;;;;;9.80;72.98;93531.38;5028078;28;20528;-83
2021/04/18 09:25:18;;;;;;;38.45;26.00;;;;;;;9.79;72.19;93513.97;5003898;28;20052;-83
2021/04/18 09:27:54;;;;;;;41.47;26.02;;;;;;;9.90;74.24;93508.25;5027441;28;20076;-82
2021/04/18 09:30:27;;;;;;;39.00;26.10;;;;;;;10.37;70.42;93541.47;5030804;28;20037;-83
2021/04/18 09:33:00;;;;;;;40.47;25.35;;;;;;;10.35;69.61;93519.06;5028930;28;20084;-84
2021/04/18 09:35:27;;;;;;;40.03;26.90;;;;;;;10.45;72.17;93537.38;5033342;28;20141;-83
2021/04/18 09:38:04;;;;;;;42.53;27.50;;;;;;;10.44;72.86;93517.31;5021273;28;20346;-83
2021/04/18 09:40:37;;;;;;;38.63;23.80;;;;;;;10.62;71.46;93537.56;5038210;28;20468;-84
2021/04/18 09:43:06;;;;;;;35.75;21.17;;;;;;;10.39;69.24;93502.34;5049928;28;20131;-84
2021/04/18 09:45:33;;;;;;;35.83;23.60;;;;;;;10.51;71.03;93498.41;5026871;28;20033;-84
2021/04/18 09:48:34;;;;;;;34.75;23.38;;;;;;;10.90;71.45;93501.28;5020150;28;20560;-84
2021/04/18 09:51:06;;;;;;;33.58;21.33;;;;;;;11.12;68.11;93519.84;4990553;28;20048;-84
2021/04/18 09:53:37;;;;;;;33.92;21.50;;;;;;;11.21;66.62;93498.78;5017515;28;20025;-85
2021/04/18 09:56:14;;;;;;;35.15;23.50;;;;;;;11.09;66.58;93474.72;5037372;28;20017;-84
2021/04/18 09:58:41;;;;;;;35.38;23.08;;;;;;;11.38;68.07;93490.97;4988366;28;20453;-83
2021/04/18 10:01:31;;;;;;;39.70;26.33;;;;;;;11.71;69.49;93521.41;4988274;28;20072;-83
2021/04/18 10:03:57;;;;;;;34.45;23.85;;;;;;;11.89;67.17;93532.91;5048640;28;20033;-84
2021/04/18 10:06:23;;;;;;;33.38;19.85;;;;;;;11.63;64.91;93479.75;5036110;28;20055;-84
2021/04/18 10:08:56;;;;;;;32.28;21.13;;;;;;;11.95;64.20;93530.91;5029236;28;27782;-85
2021/04/18 10:11:22;;;;;;;30.13;20.38;;;;;;;11.68;63.61;93507.97;5031739;28;20061;-84
2021/04/18 10:13:51;;;;;;;28.17;18.48;;;;;;;11.53;61.41;93484.56;5015435;28;20563;-84
2021/04/18 10:16:38;;;;;;;29.02;18.77;;;;;;;11.62;61.28;93486.16;5000480;28;20183;-84
2021/04/18 10:19:22;;;;;;;32.67;22.30;;;;;;;11.84;63.45;93508.41;5021977;28;20128;-83
2021/04/18 10:22:10;;;;;;;43.33;28.35;;;;;;;12.38;66.93;93500.13;5001059;28;20052;-84
2021/04/18 10:24:50;;;;;;;47.22;32.08;;;;;;;12.68;66.33;93517.06;5025850;28;20141;-84
2021/04/18 10:27:20;;;;;;;43.13;30.90;;;;;;;12.66;65.65;93513.91;5033822;28;20176;-84
2021/04/18 10:29:46;;;;;;;42.97;29.92;;;;;;;12.48;64.67;93481.28;5023949;28;21255;-84
2021/04/18 10:32:12;;;;;;;44.97;28.60;;;;;;;12.73;64.76;93535.47;5051291;28;20748;-83
2021/04/18 10:34:37;;;;;;;45.60;30.40;;;;;;;12.53;65.58;93522.78;5030058;28;20051;-84
2021/04/18 10:37:06;;;;;;;47.75;32.08;;;;;;;12.44;65.49;93512.16;5022642;28;21056;-84
2021/04/18 10:39:32;;;;;;;41.60;29.52;;;;;;;12.68;64.59;93540.13;5032041;28;20136;-84
2021/04/18 10:41:58;;;;;;;47.97;32.35;;;;;;;12.35;65.94;93511.34;5030856;28;20129;-84
2021/04/18 10:44:24;;;;;;;44.85;31.27;;;;;;;12.19;66.53;93498.78;5030659;28;20736;-84
2021/04/18 10:46:53;;;;;;;43.95;32.35;;;;;;;12.17;65.87;93507.03;5032045;28;20040;-84
2021/04/18 10:49:19;;;;;;;54.30;34.97;;;;;;;12.35;65.86;93529.09;5028229;28;20036;-84
2021/04/18 10:51:47;;;;;;;48.88;33.28;;;;;;;12.29;65.20;93522.38;5031631;28;20527;-85
2021/04/18 10:54:14;;;;;;;54.67;34.78;;;;;;;12.41;65.01;93541.91;5008608;28;20055;-84
2021/04/18 10:56:41;;;;;;;55.33;37.20;;;;;;;12.14;66.00;93523.53;5029190;28;20039;-83
2021/04/18 10:59:07;;;;;;;53.90;36.67;;;;;;;12.32;67.32;93546.38;5034471;28;20144;-83
2021/04/18 11:01:32;;;;;;;55.38;38.72;;;;;;;12.08;66.74;93498.25;5014334;28;20429;-85
2021/04/18 11:03:58;;;;;;;55.55;35.78;;;;;;;12.18;66.22;93529.00;5029482;28;20183;-85
2021/04/18 11:06:24;;;;;;;54.65;36.78;;;;;;;12.09;67.59;93510.44;5024392;28;20337;-83
2021/04/18 11:08:49;;;;;;;57.50;38.05;;;;;;;12.16;66.90;93526.69;5031248;28;20079;-84
2021/04/18 11:11:18;;;;;;;53.67;36.30;;;;;;;12.24;66.65;93518.00;5026422;28;20603;-84
2021/04/18 11:13:44;;;;;;;64.35;42.28;;;;;;;12.24;67.14;93525.16;5006963;28;20045;-85
2021/04/18 11:16:13;;;;;;;70.65;47.70;;;;;;;12.48;66.64;93563.44;5026142;28;20646;-85
2021/04/18 11:18:38;;;;;;;64.03;46.50;;;;;;;12.26;66.65;93529.06;5021467;28;20037;-85
2021/04/18 11:21:04;;;;;;;58.55;42.05;;;;;;;12.31;64.32;93528.94;5031409;28;20040;-84
2021/04/18 11:23:30;;;;;;;49.28;35.92;;;;;;;12.31;64.06;93560.75;5023743;28;20025;-84
2021/04/18 11:26:04;;;;;;;57.55;39.08;;;;;;;11.92;66.96;93515.66;5032956;28;20486;-83
2021/04/18 11:28:30;;;;;;;68.57;45.28;;;;;;;12.16;70.17;93534.63;5029261;28;21789;-83
2021/04/18 11:30:55;;;;;;;58.97;40.00;;;;;;;12.18;67.60;93507.81;5031810;28;20050;-84
2021/04/18 11:33:22;;;;;;;51.35;35.58;;;;;;;12.34;65.90;93528.31;5016798;28;20052;-84
2021/04/18 11:35:48;;;;;;;54.40;33.03;;;;;;;12.51;66.16;93531.03;5029437;28;20914;-83
2021/04/18 11:38:14;;;;;;;58.92;38.97;;;;;;;12.63;66.45;93556.19;5032635;28;20028;-83
2021/04/18 11:40:39;;;;;;;48.60;34.50;;;;;;;12.60;65.91;93541.69;5031450;28;20049;-84
2021/04/18 11:43:10;;;;;;;45.45;33.25;;;;;;;12.49;63.80;93527.91;5022782;28;20044;-83
2021/04/18 11:45:35;;;;;;;46.67;34.38;;;;;;;12.64;65.51;93537.31;5034479;28;20556;-84
2021/04/18 11:48:01;;;;;;;49.50;34.42;;;;;;;12.64;65.10;93534.66;5015096;28;20036;-84
2021/04/18 11:50:26;;;;;;;46.38;33.58;;;;;;;12.46;64.87;93517.91;5045371;28;20031;-84
2021/04/18 11:52:53;;;;;;;49.22;35.72;;;;;;;12.52;64.90;93545.06;5030227;28;20722;-83
2021/04/18 11:55:20;;;;;;;49.22;31.02;;;;;;;12.49;66.72;93540.38;5033822;28;20887;-83
2021/04/18 11:57:46;;;;;;;42.72;30.10;;;;;;;12.59;66.76;93556.00;5034318;28;20037;-83
2021/04/18 12:00:12;;;;;;;38.55;29.50;;;;;;;12.43;65.48;93534.44;5001662;28;20106;-83
2021/04/18 12:02:38;;;;;;;38.42;25.95;;;;;;;12.50;66.09;93531.34;5030533;28;20031;-84
2021/04/18 12:05:05;;;;;;;37.17;27.83;;;;;;;12.55;64.84;93529.34;5032342;28;20025;-84
2021/04/18 12:07:31;;;;;;;38.72;26.38;;;;;;;12.38;64.80;93517.88;5031291;28;20045;-83
2021/04/18 12:09:56;;;;;;;38.60;27.83;;;;;;;12.57;64.06;93527.16;4971341;28;20042;-84
2021/04/18 12:12:22;;;;;;;48.45;33.47;;;;;;;12.43;63.64;93515.09;5018532;28;20080;-83
2021/04/18 12:14:50;;;;;;;38.63;27.02;;;;;;;12.66;64.61;93544.97;5033705;28;20567;-83
2021/04/18 12:17:15;;;;;;;36.00;28.25;;;;;;;12.57;64.71;93529.81;5035917;28;20024;-84
2021/04/18 12:19:41;;;;;;;40.40;27.35;;;;;;;12.79;63.47;93544.06;5009193;28;20033;-83
2021/04/18 12:22:06;;;;;;;45.67;30.23;;;;;;;12.88;64.12;93568.75;5033846;28;20053;-83
2021/04/18 12:24:32;;;;;;;50.17;31.25;;;;;;;12.73;64.91;93545.31;5032679;28;20045;-84
2021/04/18 12:26:57;;;;;;;42.10;30.70;;;;;;;12.53;65.34;93536.03;5033547;28;20037;-83
2021/04/18 12:29:22;;;;;;;45.95;32.15;;;;;;;12.45;64.27;93524.31;5031193;28;20386;-84
2021/04/18 12:31:48;;;;;;;45.40;32.03;;;;;;;12.42;63.76;93527.56;5028249;28;20037;-84
2021/04/18 12:34:13;;;;;;;42.38;27.23;;;;;;;12.41;64.21;93549.09;5032674;28;20133;-82
2021/04/18 12:36:39;;;;;;;43.33;27.73;;;;;;;12.23;66.46;93542.13;5032970;28;20091;-83
2021/04/18 12:39:06;;;;;;;46.20;28.70;;;;;;;12.30;65.85;93556.50;5034478;28;20382;-83
2021/04/18 12:41:33;;;;;;;43.30;30.23;;;;;;;12.09;66.64;93528.97;5030728;28;20032;-84
2021/04/18 12:43:58;;;;;;;57.25;37.25;;;;;;;12.15;66.19;93525.13;5034868;28;20097;-84
2021/04/18 12:46:24;;;;;;;66.18;44.60;;;;;;;12.40;66.99;93558.91;5031110;28;20064;-84
2021/04/18 12:48:50;;;;;;;79.50;52.15;;;;;;;12.27;65.65;93538.56;5032366;28;20048;-84
2021/04/18 12:51:15;;;;;;;66.50;49.10;;;;;;;12.48;64.47;93579.34;5033012;28;20704;-84
2021/04/18 12:53:41;;;;;;;62.72;46.50;;;;;;;12.23;67.00;93569.41;5032594;28;20037;-85
2021/04/18 12:56:07;;;;;;;55.63;36.17;;;;;;;12.01;66.00;93527.84;5029601;28;20105;-83
2021/04/18 12:58:33;;;;;;;53.20;35.28;;;;;;;12.08;65.95;93541.44;5032828;28;20578;-83
2021/04/18 13:00:59;;;;;;;55.78;37.80;;;;;;;12.25;65.85;93550.56;5030663;28;20223;-84
2021/04/18 13:03:26;;;;;;;56.63;39.25;;;;;;;12.13;66.67;93559.84;5037690;28;20040;-83
2021/04/18 13:05:54;;;;;;;50.13;34.15;;;;;;;11.98;67.47;93564.72;5038206;28;20049;-83
2021/04/18 13:08:19;;;;;;;55.20;33.67;;;;;;;12.00;68.21;93570.53;5040361;28;20278;-83
2021/04/18 13:10:45;;;;;;;60.83;37.67;;;;;;;12.07;68.76;93586.78;5033212;28;20110;-83
2021/04/18 13:13:11;;;;;;;55.92;36.28;;;;;;;12.05;69.11;93599.53;5032620;28;20371;-84
2021/04/18 13:15:39;;;;;;;72.05;38.30;;;;;;;12.00;68.87;93587.19;5024027;28;20124;-83
2021/04/18 13:18:05;;;;;;;60.38;36.22;;;;;;;11.63;69.37;93551.22;5030505;28;20041;-84
2021/04/18 13:20:31;;;;;;;59.08;35.38;;;;;;;11.89;69.01;93571.84;5034770;28;20540;-83
2021/04/18 13:22:56;;;;;;;63.92;37.90;;;;;;;11.73;69.84;93555.53;5037041;28;20085;-84
2021/04/18 13:25:22;;;;;;;75.22;43.10;;;;;;;11.92;69.07;93584.50;5034968;28;20129;-83
2021/04/18 13:27:47;;;;;;;69.13;41.65;;;;;;;11.71;70.04;93574.34;5038150;28;20085;-84
2021/04/18 13:30:14;;;;;;;71.40;41.03;;;;;;;11.48;69.74;93562.19;5030133;28;20186;-83
2021/04/18 13:32:40;;;;;;;62.28;35.72;;;;;;;11.36;69.94;93556.63;5016030;28;20032;-84
2021/04/18 13:35:07;;;;;;;70.20;40.75;;;;;;;11.32;71.30;93566.25;5015443;28;20029;-83
2021/04/18 13:37:35;;;;;;;63.05;37.95;;;;;;;11.47;72.23;93597.66;5037196;28;20052;-83
2021/04/18 13:40:01;;;;;;;71.22;40.80;;;;;;;11.35;72.66;93589.44;5034756;28;20128;-83
2021/04/18 13:42:27;;;;;;;62.45;37.22;;;;;;;11.32;71.00;93589.28;5033715;28;20405;-85
2021/04/18 13:44:52;;;;;;;66.55;39.85;;;;;;;11.04;71.98;93565.53;5027838;28;20497;-84
2021/04/18 13:47:18;;;;;;;62.83;36.05;;;;;;;11.00;72.11;93579.59;5039264;28;20457;-82
2021/04/18 13:49:43;;;;;;;64.95;36.88;;;;;;;11.04;73.02;93607.84;5033376;28;20541;-83
2021/04/18 13:52:11;;;;;;;57.78;36.00;;;;;;;11.18;73.13;93623.69;5035173;28;20041;-83
2021/04/18 13:54:37;;;;;;;57.40;31.17;;;;;;;11.03;71.94;93605.47;5033918;28;20056;-84
2021/04/18 13:57:03;;;;;;;65.28;36.08;;;;;;;10.73;72.79;93570.63;5031706;28;20041;-83
2021/04/18 13:59:28;;;;;;;207.45;96.70;;;;;;;10.74;72.79;93584.63;5037857;28;20025;-83
2021/04/18 14:01:54;;;;;;;134.35;62.00;;;;;;;10.97;72.78;93648.97;5034409;28;20467;-83
2021/04/18 14:04:19;;;;;;;175.70;95.32;;;;;;;10.79;73.03;93614.41;5038879;28;20056;-83
2021/04/18 14:06:45;;;;;;;100.32;51.80;;;;;;;10.53;74.08;93615.16;5034230;28;20037;-84
2021/04/18 14:09:14;;;;;;;354.58;212.05;;;;;;;10.42;73.85;93585.50;5037056;28;20036;-83
2021/04/18 14:11:39;;;;;;;126.18;77.10;;;;;;;10.35;74.62;93601.75;5033923;28;20509;-83
2021/04/18 14:14:08;;;;;;;144.05;85.80;;;;;;;10.64;75.10;93656.97;5034620;28;20086;-84
2021/04/18 14:16:33;;;;;;;74.32;41.08;;;;;;;10.71;74.50;93651.28;5033920;28;20064;-83
2021/04/18 14:18:59;;;;;;;99.63;54.80;;;;;;;10.34;74.56;93608.09;5028903;28;20135;-83
2021/04/18 14:21:24;;;;;;;106.05;56.60;;;;;;;10.64;75.42;93656.97;5033462;28;20504;-83
2021/04/18 14:23:50;;;;;;;123.07;61.35;;;;;;;10.68;75.33;93665.88;5032000;28;20075;-83
2021/04/18 14:26:16;;;;;;;94.70;50.55;;;;;;;10.73;75.53;93663.16;5037537;28;20108;-84